Time;durP1;ratioP1;P1;durP2;ratioP2;P2;SDS_P1;SDS_P2;PMS_P1;PMS_P2;Temp;Humidity;BMP_temperature;BMP_pressure;BME280_temperature;BME280_humidity;BME280_pressure;Samples;Min_cycle;Max_cycle;Signal;HPM_P1;HPM_P2
2021/10/23 00:01:13;;;;;;;13.77;2.47;;;6.30;99.90;;;;;;4955777;28;20077;-78
2021/10/23 00:03:39;;;;;;;17.08;1.80;;;6.40;99.90;;;;;;4968002;28;20097;-78
2021/10/23 00:06:04;;;;;;;15.52;2.05;;;6.50;99.90;;;;;;4948431;28;20038;-78
2021/10/23 00:08:30;;;;;;;12.15;1.58;;;6.50;99.90;;;;;;4955333;28;20058;-78
2021/10/23 00:10:56;;;;;;;17.95;2.40;;;6.50;99.90;;;;;;4950294;28;20107;-78
2021/10/23 00:13:21;;;;;;;19.88;2.13;;;6.60;99.90;;;;;;4933090;28;20117;-77
2021/10/23 00:15:50;;;;;;;14.88;2.45;;;6.60;99.90;;;;;;4955389;28;20229;-78
2021/10/23 00:18:16;;;;;;;13.43;2.13;;;6.60;99.90;;;;;;4951995;28;20134;-78
2021/10/23 00:20:41;;;;;;;11.65;1.63;;;6.60;99.90;;;;;;4950061;28;20053;-78
2021/10/23 00:23:07;;;;;;;24.55;2.35;;;6.50;99.90;;;;;;4965124;28;20039;-78
2021/10/23 00:25:33;;;;;;;12.60;1.60;;;6.60;99.90;;;;;;4950883;28;20042;-78
2021/10/23 00:27:58;;;;;;;15.25;2.15;;;6.50;99.90;;;;;;4954172;28;20069;-79
2021/10/23 00:30:25;;;;;;;15.27;1.75;;;6.50;99.90;;;;;;4953162;28;20336;-78
2021/10/23 00:32:51;;;;;;;10.93;2.50;;;6.50;99.90;;;;;;4938214;28;20042;-79
2021/10/23 00:35:16;;;;;;;15.85;2.15;;;6.50;99.90;;;;;;4938391;28;20070;-78
2021/10/23 00:37:42;;;;;;;10.60;1.48;;;6.50;99.90;;;;;;4954419;28;20042;-78
2021/10/23 00:40:08;;;;;;;14.30;1.85;;;6.50;99.90;;;;;;4952802;28;20042;-78
2021/10/23 00:42:34;;;;;;;19.55;2.10;;;6.50;99.90;;;;;;4955938;28;20117;-78
2021/10/23 00:45:00;;;;;;;16.50;1.90;;;6.60;99.90;;;;;;4955040;28;20146;-75
2021/10/23 00:47:26;;;;;;;11.00;1.92;;;6.50;99.90;;;;;;4952564;28;20434;-75
2021/10/23 00:49:52;;;;;;;16.45;2.30;;;6.50;99.90;;;;;;4957274;28;20077;-75
2021/10/23 00:52:20;;;;;;;17.63;2.22;;;6.50;99.90;;;;;;4951633;28;20346;-75
2021/10/23 00:54:46;;;;;;;13.90;1.83;;;6.40;99.90;;;;;;4969752;28;20031;-75
2021/10/23 00:57:12;;;;;;;12.32;1.80;;;6.50;99.90;;;;;;4972606;28;20042;-75
2021/10/23 00:59:39;;;;;;;14.30;1.88;;;6.30;99.90;;;;;;4953004;28;20119;-75
2021/10/23 01:02:05;;;;;;;18.42;2.25;;;6.40;99.90;;;;;;4952454;28;20161;-75
2021/10/23 01:04:31;;;;;;;12.23;2.00;;;6.30;99.90;;;;;;4969729;28;20046;-78
2021/10/23 01:06:57;;;;;;;18.65;1.95;;;6.30;99.90;;;;;;4954638;28;20087;-78
2021/10/23 01:09:24;;;;;;;15.60;1.88;;;6.30;99.90;;;;;;4954749;28;20090;-78
2021/10/23 01:11:50;;;;;;;15.38;1.80;;;6.30;99.90;;;;;;4954909;28;20129;-78
2021/10/23 01:14:21;;;;;;;17.15;1.95;;;6.30;99.90;;;;;;4956422;28;20367;-78
2021/10/23 01:16:49;;;;;;;15.68;2.05;;;6.20;99.90;;;;;;4951524;28;20046;-78
2021/10/23 01:19:16;;;;;;;13.88;1.95;;;6.20;99.90;;;;;;4953763;28;20111;-78
2021/10/23 01:21:45;;;;;;;14.38;1.92;;;6.20;99.90;;;;;;4952046;28;20046;-78
2021/10/23 01:24:11;;;;;;;12.02;1.83;;;6.10;99.90;;;;;;4951444;28;20110;-78
2021/10/23 01:26:37;;;;;;;9.63;1.65;;;6.10;99.90;;;;;;4953730;28;20050;-78
2021/10/23 01:29:05;;;;;;;13.27;1.92;;;6.10;99.90;;;;;;4984660;28;20061;-78
2021/10/23 01:31:31;;;;;;;14.70;2.00;;;6.10;99.90;;;;;;4952612;28;20134;-78
2021/10/23 01:33:57;;;;;;;8.82;1.70;;;6.10;99.90;;;;;;4952251;28;20055;-78
2021/10/23 01:36:23;;;;;;;16.25;2.05;;;6.10;99.90;;;;;;4955261;28;20046;-78
2021/10/23 01:38:49;;;;;;;19.17;2.08;;;6.10;99.90;;;;;;4970735;28;20058;-78
2021/10/23 01:41:16;;;;;;;14.85;2.05;;;6.10;99.90;;;;;;4962470;28;20766;-78
2021/10/23 01:43:42;;;;;;;14.85;1.98;;;6.10;99.90;;;;;;4953850;28;20046;-78
2021/10/23 01:46:08;;;;;;;13.43;1.70;;;6.10;99.90;;;;;;4952799;28;20047;-78
2021/10/23 01:48:35;;;;;;;13.65;1.80;;;6.10;99.90;;;;;;4972066;28;20042;-78
2021/10/23 01:51:01;;;;;;;17.25;1.90;;;6.10;99.90;;;;;;4949254;28;20046;-78
2021/10/23 01:53:27;;;;;;;10.25;1.40;;;6.10;99.90;;;;;;4967519;28;20039;-78
2021/10/23 01:55:53;;;;;;;13.73;1.48;;;6.20;99.90;;;;;;4952161;28;20027;-78
2021/10/23 01:58:19;;;;;;;12.32;1.58;;;6.30;99.90;;;;;;4952119;28;20498;-78
2021/10/23 02:00:49;;;;;;;14.65;1.83;;;6.40;99.90;;;;;;4955870;28;20116;-78
2021/10/23 02:03:14;;;;;;;12.00;1.60;;;5.80;99.90;;;;;;4949775;28;20050;-78
2021/10/23 02:05:40;;;;;;;21.58;1.90;;;6.60;99.90;;;;;;4953439;28;20089;-78
2021/10/23 02:08:06;;;;;;;13.80;2.10;;;6.60;99.90;;;;;;4932951;28;20069;-78
2021/10/23 02:10:32;;;;;;;16.75;1.52;;;6.60;99.90;;;;;;4952544;28;20089;-78
2021/10/23 02:12:58;;;;;;;9.68;1.67;;;6.60;99.90;;;;;;4969529;28;20053;-78
2021/10/23 02:15:24;;;;;;;14.70;1.73;;;6.50;99.90;;;;;;4948540;28;20060;-79
2021/10/23 02:17:50;;;;;;;15.45;2.17;;;6.50;99.90;;;;;;4950350;28;20738;-79
2021/10/23 02:20:16;;;;;;;15.75;1.80;;;6.50;99.90;;;;;;4966613;28;20058;-79
2021/10/23 02:22:42;;;;;;;17.73;2.22;;;6.50;99.90;;;;;;4966651;28;20462;-79
2021/10/23 02:25:10;;;;;;;9.70;1.73;;;6.50;99.90;;;;;;4970663;28;20050;-80
2021/10/23 02:27:36;;;;;;;13.35;1.80;;;6.40;99.90;;;;;;4954326;28;20473;-78
2021/10/23 02:30:07;;;;;;;9.70;1.33;;;6.40;99.90;;;;;;4971689;28;20038;-79
2021/10/23 02:32:33;;;;;;;10.48;1.52;;;6.30;99.90;;;;;;4955132;28;20045;-78
2021/10/23 02:34:59;;;;;;;15.50;1.90;;;6.30;99.90;;;;;;4953651;28;20054;-78
2021/10/23 02:37:25;;;;;;;10.93;1.40;;;6.20;99.90;;;;;;4954089;28;20118;-79
2021/10/23 02:39:51;;;;;;;13.63;1.63;;;6.20;99.90;;;;;;4949962;28;20185;-78
2021/10/23 02:42:17;;;;;;;13.45;1.77;;;6.20;99.90;;;;;;4953500;28;20054;-78
2021/10/23 02:44:44;;;;;;;11.35;1.67;;;6.20;99.90;;;;;;4957256;28;20045;-78
2021/10/23 02:47:09;;;;;;;13.98;2.33;;;6.20;99.90;;;;;;4953540;28;20054;-78
2021/10/23 02:49:37;;;;;;;16.80;1.60;;;6.20;99.90;;;;;;4952141;28;20363;-78
2021/10/23 02:52:04;;;;;;;11.60;1.65;;;6.20;99.90;;;;;;4970214;28;20054;-78
2021/10/23 02:54:30;;;;;;;11.40;1.60;;;6.20;99.90;;;;;;4955093;28;20142;-78
2021/10/23 02:56:56;;;;;;;10.45;1.65;;;6.30;99.90;;;;;;4970316;28;20122;-78
2021/10/23 02:59:22;;;;;;;14.38;1.60;;;6.30;99.90;;;;;;4954639;28;20154;-78
2021/10/23 03:01:48;;;;;;;11.38;1.80;;;6.30;99.90;;;;;;4953035;28;20466;-78
2021/10/23 03:04:13;;;;;;;14.27;1.88;;;6.30;99.90;;;;;;4956112;28;20055;-78
2021/10/23 03:06:43;;;;;;;11.70;1.38;;;6.40;99.90;;;;;;4954883;28;20081;-78
2021/10/23 03:09:10;;;;;;;19.02;1.70;;;6.50;99.90;;;;;;4986206;28;20055;-78
2021/10/23 03:11:36;;;;;;;8.13;1.17;;;6.50;99.90;;;;;;4953247;28;20067;-78
2021/10/23 03:14:02;;;;;;;14.40;1.48;;;6.60;99.90;;;;;;4955398;28;20042;-78
2021/10/23 03:16:27;;;;;;;15.75;1.42;;;6.60;99.90;;;;;;4953845;28;20544;-78
2021/10/23 03:18:53;;;;;;;8.45;1.10;;;6.70;99.90;;;;;;4972488;28;20039;-78
2021/10/23 03:21:19;;;;;;;7.80;1.10;;;6.90;99.90;;;;;;4952749;28;20035;-78
2021/10/23 03:23:44;;;;;;;10.93;1.70;;;6.90;99.90;;;;;;4954628;28;20037;-78
2021/10/23 03:26:10;;;;;;;8.82;1.48;;;7.00;99.90;;;;;;4956286;28;20394;-78
2021/10/23 03:28:36;;;;;;;8.10;1.40;;;7.80;99.90;;;;;;4951865;28;20054;-78
2021/10/23 03:31:01;;;;;;;14.50;1.55;;;8.10;99.90;;;;;;4953440;28;20101;-78
2021/10/23 03:33:27;;;;;;;12.18;1.52;;;7.10;99.90;;;;;;4951269;28;20122;-78
2021/10/23 03:35:53;;;;;;;12.48;1.63;;;7.10;99.90;;;;;;4950832;28;20087;-78
2021/10/23 03:38:18;;;;;;;11.40;1.60;;;7.20;99.90;;;;;;4954348;28;20117;-78
2021/10/23 03:40:44;;;;;;;12.68;1.50;;;7.20;99.90;;;;;;4953505;28;20100;-78
2021/10/23 03:43:09;;;;;;;12.70;1.60;;;7.20;99.90;;;;;;4935715;28;20027;-78
2021/10/23 03:45:35;;;;;;;11.73;1.48;;;7.20;99.90;;;;;;4953350;28;20121;-78
2021/10/23 03:48:01;;;;;;;15.68;1.92;;;7.20;99.90;;;;;;4954628;28;20038;-78
2021/10/23 03:50:26;;;;;;;16.67;1.70;;;7.20;99.90;;;;;;4951617;28;20055;-78
2021/10/23 03:52:54;;;;;;;10.95;2.20;;;7.20;99.90;;;;;;4957367;28;20045;-78
2021/10/23 03:55:20;;;;;;;16.15;1.52;;;7.20;99.90;;;;;;4957461;28;20047;-78
2021/10/23 03:57:47;;;;;;;13.00;1.35;;;7.20;99.90;;;;;;4961081;28;20045;-78
2021/10/23 04:00:13;;;;;;;11.20;1.85;;;7.20;99.90;;;;;;4953391;28;20382;-78
2021/10/23 04:02:39;;;;;;;14.23;1.67;;;7.30;99.90;;;;;;4951512;28;20055;-78
2021/10/23 04:05:06;;;;;;;10.35;1.45;;;7.30;99.90;;;;;;4953635;28;20051;-78
2021/10/23 04:07:31;;;;;;;10.40;1.48;;;7.30;99.90;;;;;;4941789;28;20055;-78
2021/10/23 04:09:58;;;;;;;11.80;1.40;;;7.50;99.90;;;;;;4965559;28;20046;-78
2021/10/23 04:12:24;;;;;;;16.58;2.00;;;7.30;99.90;;;;;;4954256;28;20104;-78
2021/10/23 04:14:50;;;;;;;10.93;1.48;;;7.30;99.90;;;;;;4954317;28;20363;-78
2021/10/23 04:17:16;;;;;;;12.95;1.55;;;7.30;99.90;;;;;;4952158;28;20035;-78
2021/10/23 04:19:41;;;;;;;13.05;1.27;;;7.20;99.90;;;;;;4954685;28;20038;-78
2021/10/23 04:22:07;;;;;;;13.50;1.35;;;7.80;99.90;;;;;;4954401;28;20060;-78
2021/10/23 04:24:33;;;;;;;8.10;1.10;;;7.30;99.90;;;;;;4952776;28;20125;-78
2021/10/23 04:26:58;;;;;;;10.68;1.63;;;6.40;99.90;;;;;;4951404;28;20047;-77
2021/10/23 04:29:24;;;;;;;11.93;1.80;;;7.90;99.90;;;;;;4955471;28;20065;-78
2021/10/23 04:31:50;;;;;;;13.35;1.52;;;7.20;99.90;;;;;;4968025;28;20106;-77
2021/10/23 04:34:16;;;;;;;7.68;1.20;;;8.50;99.90;;;;;;4952321;28;20038;-78
2021/10/23 04:36:43;;;;;;;12.20;1.90;;;7.00;99.90;;;;;;4953376;28;20041;-78
2021/10/23 04:39:09;;;;;;;6.45;1.40;;;7.10;99.90;;;;;;4986129;28;20039;-78
2021/10/23 04:41:36;;;;;;;14.02;1.63;;;7.00;99.90;;;;;;4966497;28;20526;-77
2021/10/23 04:44:03;;;;;;;10.30;1.65;;;7.10;99.90;;;;;;4951907;28;20125;-78
2021/10/23 04:46:29;;;;;;;13.75;1.60;;;7.20;99.90;;;;;;4954363;28;20522;-78
2021/10/23 04:48:56;;;;;;;11.00;1.52;;;7.10;99.90;;;;;;4954322;28;20121;-82
2021/10/23 04:51:22;;;;;;;12.23;2.42;;;;;;;;;;4950815;28;20438;-78
2021/10/23 04:53:50;;;;;;;10.85;1.45;;;6.40;99.90;;;;;;4951875;28;20374;-77
2021/10/23 04:56:16;;;;;;;15.68;1.80;;;6.90;99.90;;;;;;4955629;28;20046;-78
2021/10/23 04:58:42;;;;;;;9.93;1.50;;;7.10;99.90;;;;;;4952226;28;20042;-78
2021/10/23 05:01:08;;;;;;;9.80;1.58;;;7.00;99.90;;;;;;4949086;28;20062;-77
2021/10/23 05:03:33;;;;;;;10.18;1.42;;;7.00;99.90;;;;;;4979093;28;20050;-77
2021/10/23 05:05:59;;;;;;;7.00;1.20;;;7.30;99.90;;;;;;4946277;28;20044;-78
2021/10/23 05:08:25;;;;;;;11.60;1.73;;;6.90;99.90;;;;;;4961756;28;20459;-77
2021/10/23 05:10:50;;;;;;;12.10;1.65;;;6.90;99.90;;;;;;4947842;28;20089;-77
2021/10/23 05:13:16;;;;;;;11.05;1.50;;;6.90;99.90;;;;;;4943970;28;20070;-78
2021/10/23 05:15:42;;;;;;;10.85;1.33;;;6.80;99.90;;;;;;4947282;29;20531;-78
2021/10/23 05:18:07;;;;;;;11.82;2.05;;;6.80;99.90;;;;;;4932513;29;20130;-79
2021/10/23 05:20:33;;;;;;;11.13;1.35;;;6.80;99.90;;;;;;4947061;29;20079;-78
2021/10/23 05:22:59;;;;;;;13.55;1.63;;;6.00;99.90;;;;;;4947533;28;20450;-78
2021/10/23 05:25:24;;;;;;;10.18;1.60;;;6.90;99.90;;;;;;4946675;29;20066;-78
2021/10/23 05:27:50;;;;;;;9.23;1.45;;;6.60;99.90;;;;;;4948892;29;20110;-78
2021/10/23 05:30:16;;;;;;;8.70;1.23;;;6.70;99.90;;;;;;4972302;28;20042;-77
2021/10/23 05:32:41;;;;;;;10.38;1.60;;;6.60;99.90;;;;;;4952619;28;20320;-79
2021/10/23 05:35:07;;;;;;;11.82;1.50;;;6.50;99.90;;;;;;4964846;28;20090;-79
2021/10/23 05:37:33;;;;;;;8.60;1.35;;;6.60;99.90;;;;;;4947959;28;20055;-78
2021/10/23 05:39:59;;;;;;;9.57;1.58;;;6.60;99.90;;;;;;4948169;28;20031;-83
2021/10/23 05:42:25;;;;;;;11.27;1.60;;;6.60;99.90;;;;;;4963495;28;20038;-78
2021/10/23 05:44:51;;;;;;;12.98;1.65;;;6.50;99.90;;;;;;4948961;28;20540;-78
2021/10/23 05:47:17;;;;;;;15.07;1.92;;;;;;;;;;4949550;29;20438;-80
2021/10/23 05:49:42;;;;;;;13.05;2.15;;;6.40;99.90;;;;;;4951139;28;20048;-78
2021/10/23 05:52:08;;;;;;;13.43;2.10;;;6.40;99.90;;;;;;4947596;28;20447;-78
2021/10/23 05:54:37;;;;;;;15.93;2.08;;;6.10;99.90;;;;;;4933032;29;20155;-75
2021/10/23 05:57:11;;;;;;;15.55;1.83;;;5.70;99.90;;;;;;4947076;28;20043;-75
2021/10/23 05:59:41;;;;;;;15.37;2.13;;;6.30;99.90;;;;;;4950581;28;20362;-75
2021/10/23 06:02:24;;;;;;;16.67;1.75;;;6.30;99.90;;;;;;4952096;28;20877;-75
2021/10/23 06:04:54;;;;;;;10.43;1.60;;;6.10;99.90;;;;;;4953037;28;20070;-75
2021/10/23 06:07:21;;;;;;;16.40;1.83;;;6.10;99.90;;;;;;4952423;28;20129;-75
2021/10/23 06:09:47;;;;;;;6.88;1.63;;;;;;;;;;4958737;28;20456;-75
2021/10/23 06:12:13;;;;;;;15.30;2.00;;;6.20;99.90;;;;;;4957711;28;20082;-74
2021/10/23 06:14:39;;;;;;;12.43;1.92;;;6.20;99.90;;;;;;4958900;28;20079;-75
2021/10/23 06:17:05;;;;;;;12.32;1.95;;;6.20;99.90;;;;;;4957086;28;20430;-74
2021/10/23 06:19:32;;;;;;;8.13;1.88;;;6.30;99.90;;;;;;4957151;28;20034;-74
2021/10/23 06:21:59;;;;;;;16.55;1.92;;;6.70;99.90;;;;;;4954852;28;20031;-74
2021/10/23 06:24:25;;;;;;;12.68;2.20;;;6.30;99.90;;;;;;4954023;28;20118;-75
2021/10/23 06:26:50;;;;;;;10.27;1.70;;;6.30;99.90;;;;;;4956376;28;20125;-75
2021/10/23 06:29:16;;;;;;;10.80;1.75;;;6.30;99.90;;;;;;4955180;28;20037;-75
2021/10/23 06:31:41;;;;;;;11.02;2.55;;;6.40;99.90;;;;;;4954454;28;20045;-77
2021/10/23 06:34:07;;;;;;;12.30;2.08;;;6.40;99.90;;;;;;4958577;28;20138;-78
2021/10/23 06:36:33;;;;;;;15.73;2.10;;;6.40;99.90;;;;;;4954259;28;20041;-78
2021/10/23 06:39:00;;;;;;;13.73;2.08;;;6.40;99.90;;;;;;4958711;28;20101;-77
2021/10/23 06:41:25;;;;;;;13.68;2.00;;;6.50;99.90;;;;;;4955139;28;20513;-75
2021/10/23 06:43:51;;;;;;;14.05;2.38;;;6.50;99.90;;;;;;4954627;28;20034;-75
2021/10/23 06:46:17;;;;;;;14.75;2.10;;;6.60;99.90;;;;;;4952919;28;20051;-75
2021/10/23 06:48:42;;;;;;;10.40;1.75;;;6.60;99.90;;;;;;4953921;28;20134;-77
2021/10/23 06:51:08;;;;;;;11.65;2.05;;;6.70;99.90;;;;;;4970973;28;20035;-78
2021/10/23 06:53:37;;;;;;;11.30;2.20;;;6.70;99.90;;;;;;4939426;28;20121;-76
2021/10/23 06:56:03;;;;;;;14.75;2.00;;;6.80;99.90;;;;;;4954336;28;20042;-75
2021/10/23 06:58:28;;;;;;;11.20;2.40;;;6.90;99.90;;;;;;4956110;28;20046;-75
2021/10/23 07:00:54;;;;;;;11.13;1.98;;;7.30;99.90;;;;;;4954543;28;20134;-75
2021/10/23 07:03:20;;;;;;;11.60;2.15;;;7.00;99.90;;;;;;4951294;28;20466;-75
2021/10/23 07:05:45;;;;;;;14.43;2.22;;;7.00;99.90;;;;;;4936855;28;20050;-75
2021/10/23 07:08:11;;;;;;;17.05;2.85;;;7.10;99.90;;;;;;4952215;28;20161;-75
2021/10/23 07:10:39;;;;;;;16.13;2.22;;;7.10;99.90;;;;;;4955226;28;20417;-75
2021/10/23 07:13:04;;;;;;;16.38;2.80;;;7.70;99.90;;;;;;4953433;28;20097;-75
2021/10/23 07:15:30;;;;;;;14.15;2.33;;;7.30;99.90;;;;;;4970186;28;20514;-74
2021/10/23 07:17:57;;;;;;;13.85;2.83;;;7.30;99.90;;;;;;4954377;28;20043;-75
2021/10/23 07:20:25;;;;;;;8.75;2.47;;;;;;;;;;4955382;28;20121;-75
2021/10/23 07:22:51;;;;;;;15.27;2.72;;;7.80;99.90;;;;;;4969629;28;20406;-77
2021/10/23 07:25:17;;;;;;;18.80;2.92;;;7.50;99.90;;;;;;4958778;28;20251;-76
2021/10/23 07:27:43;;;;;;;18.27;2.95;;;8.00;99.90;;;;;;4976789;28;20034;-76
2021/10/23 07:30:09;;;;;;;13.10;2.47;;;7.80;99.90;;;;;;4959110;28;20478;-75
2021/10/23 07:32:41;;;;;;;19.70;2.55;;;7.90;99.90;;;;;;4959534;28;20047;-76
2021/10/23 07:35:08;;;;;;;18.95;3.10;;;7.70;99.90;;;;;;4959265;28;20502;-75
2021/10/23 07:37:34;;;;;;;12.57;2.78;;;7.80;99.90;;;;;;4958701;28;20071;-76
2021/10/23 07:40:00;;;;;;;23.05;3.20;;;7.90;99.90;;;;;;4959730;28;20066;-76
2021/10/23 07:42:27;;;;;;;14.00;2.67;;;7.90;99.90;;;;;;4954513;28;20059;-78
2021/10/23 07:44:53;;;;;;;20.17;3.08;;;8.20;99.90;;;;;;4985647;28;20095;-78
2021/10/23 07:47:19;;;;;;;12.07;2.80;;;8.10;99.90;;;;;;4955746;28;20507;-76
2021/10/23 07:49:48;;;;;;;12.05;2.70;;;8.10;99.90;;;;;;4955621;28;20133;-75
2021/10/23 07:52:14;;;;;;;12.35;2.55;;;8.20;99.90;;;;;;4938449;28;20055;-77
2021/10/23 07:54:42;;;;;;;18.77;2.95;;;8.30;99.90;;;;;;4968041;28;20469;-76
2021/10/23 07:57:08;;;;;;;14.07;2.28;;;8.50;99.90;;;;;;4958701;28;20047;-76
2021/10/23 07:59:34;;;;;;;14.63;2.65;;;8.40;99.90;;;;;;4958078;28;20126;-75
2021/10/23 08:02:01;;;;;;;15.25;2.00;;;8.60;99.90;;;;;;4955242;28;20101;-76
2021/10/23 08:04:28;;;;;;;12.77;2.50;;;8.50;99.90;;;;;;4957845;28;20077;-75
2021/10/23 08:06:54;;;;;;;11.45;2.10;;;8.60;99.90;;;;;;4954734;28;20049;-76
2021/10/23 08:09:20;;;;;;;15.77;2.38;;;8.70;99.90;;;;;;4954958;28;20046;-76
2021/10/23 08:12:03;;;;;;;20.30;2.70;;;8.80;99.90;;;;;;4955104;28;20136;-80
2021/10/23 08:14:29;;;;;;;14.40;2.78;;;8.90;99.90;;;;;;4965415;28;20517;-75
2021/10/23 08:16:56;;;;;;;20.45;2.90;;;9.00;99.90;;;;;;4953404;28;20355;-75
2021/10/23 08:19:23;;;;;;;16.98;2.95;;;9.10;99.90;;;;;;4967764;28;20070;-75
2021/10/23 08:21:49;;;;;;;17.27;3.05;;;9.30;99.90;;;;;;4949196;28;20034;-75
2021/10/23 08:24:15;;;;;;;14.00;2.65;;;9.40;99.90;;;;;;4953555;28;21138;-75
2021/10/23 08:26:42;;;;;;;14.02;2.88;;;9.50;99.90;;;;;;4964612;28;20061;-76
2021/10/23 08:29:08;;;;;;;12.85;2.40;;;9.60;99.90;;;;;;4966907;28;20117;-76
2021/10/23 08:31:34;;;;;;;15.13;3.00;;;9.70;99.90;;;;;;4949621;28;20055;-76
2021/10/23 08:34:00;;;;;;;12.23;2.33;;;9.70;99.90;;;;;;4951459;28;20055;-76
2021/10/23 08:36:29;;;;;;;10.27;2.45;;;9.70;99.90;;;;;;4949245;28;20117;-78
2021/10/23 08:38:56;;;;;;;10.23;2.30;;;9.70;99.90;;;;;;4965220;28;20076;-77
2021/10/23 08:41:24;;;;;;;18.35;2.50;;;9.80;99.90;;;;;;4965211;28;20043;-77
2021/10/23 08:43:51;;;;;;;10.30;2.25;;;9.80;99.90;;;;;;4949814;28;20051;-78
2021/10/23 08:46:23;;;;;;;12.63;2.13;;;9.90;99.90;;;;;;4952750;28;20086;-79
2021/10/23 08:48:53;;;;;;;14.75;2.20;;;9.90;99.90;;;;;;4951449;28;20114;-78
2021/10/23 08:51:23;;;;;;;8.95;1.80;;;9.90;99.90;;;;;;4953337;28;20039;-76
2021/10/23 08:53:52;;;;;;;15.02;2.20;;;9.90;99.90;;;;;;4953392;28;20116;-78
2021/10/23 08:56:19;;;;;;;17.73;2.38;;;9.90;99.90;;;;;;4955374;28;20175;-77
2021/10/23 08:58:44;;;;;;;11.98;2.13;;;9.90;99.90;;;;;;4967987;28;20045;-76
2021/10/23 09:01:13;;;;;;;8.65;1.85;;;9.90;99.90;;;;;;4950513;28;20054;-76
2021/10/23 09:03:42;;;;;;;13.43;1.80;;;9.90;99.90;;;;;;4952140;28;20047;-77
2021/10/23 09:06:28;;;;;;;9.45;1.80;;;9.90;99.90;;;;;;4950929;28;20133;-76
2021/10/23 09:09:11;;;;;;;11.65;1.80;;;9.90;99.90;;;;;;4952331;28;20066;-79
2021/10/23 09:11:43;;;;;;;10.10;1.60;;;9.80;99.90;;;;;;4951173;28;20581;-75
2021/10/23 09:14:34;;;;;;;15.70;1.90;;;9.90;99.90;;;;;;4981901;28;20050;-78
2021/10/23 09:17:12;;;;;;;13.10;1.80;;;9.90;99.90;;;;;;4951482;28;20089;-79
2021/10/23 09:19:46;;;;;;;15.52;2.08;;;9.90;99.90;;;;;;4967773;28;20439;-78
2021/10/23 09:22:27;;;;;;;13.27;1.90;;;10.00;99.90;;;;;;4951912;28;20061;-77
2021/10/23 09:25:14;;;;;;;16.10;2.22;;;10.10;99.90;;;;;;4968600;28;20306;-77
2021/10/23 09:27:51;;;;;;;14.73;2.13;;;10.10;99.90;;;;;;4957732;28;20117;-77
2021/10/23 09:30:19;;;;;;;11.90;1.70;;;10.20;99.90;;;;;;4949123;28;21024;-77
2021/10/23 09:32:50;;;;;;;15.02;2.30;;;10.20;99.90;;;;;;4987910;28;20074;-77
2021/10/23 09:35:18;;;;;;;14.98;2.05;;;10.30;99.90;;;;;;4959078;28;20120;-76
2021/10/23 09:37:45;;;;;;;13.65;1.73;;;10.40;99.90;;;;;;4957737;28;20050;-77
2021/10/23 09:40:15;;;;;;;9.65;1.70;;;10.40;99.90;;;;;;4959586;28;20525;-78
2021/10/23 09:42:41;;;;;;;17.00;1.50;;;10.50;99.90;;;;;;4951903;28;20054;-76
2021/10/23 09:45:07;;;;;;;19.00;1.98;;;10.60;99.90;;;;;;4969327;28;20430;-79
2021/10/23 09:47:45;;;;;;;9.85;1.75;;;10.70;99.90;;;;;;4953125;28;20046;-80
2021/10/23 09:50:14;;;;;;;14.82;2.05;;;10.70;99.90;;;;;;4986608;28;20445;-80
2021/10/23 09:52:59;;;;;;;9.38;1.92;;;10.80;99.90;;;;;;4954715;28;20050;-82
2021/10/23 09:55:44;;;;;;;;;;;10.90;99.90;;;;;;4940994;28;20051;-81
2021/10/23 09:58:20;;;;;;;7.63;1.60;;;11.10;99.90;;;;;;4987586;28;19918;-80
2021/10/23 10:00:47;;;;;;;10.57;2.13;;;11.00;99.90;;;;;;4972446;28;20039;-80
2021/10/23 10:03:13;;;;;;;10.38;1.67;;;11.20;99.90;;;;;;4956402;28;20062;-80
2021/10/23 10:05:40;;;;;;;13.02;2.22;;;11.00;99.90;;;;;;4970826;28;20038;-80
2021/10/23 10:08:11;;;;;;;9.38;1.98;;;11.10;99.90;;;;;;4955086;28;20034;-81
2021/10/23 10:10:47;;;;;;;11.02;1.90;;;11.20;99.90;;;;;;4952621;28;20125;-82
2021/10/23 10:13:22;;;;;;;11.80;1.95;;;11.20;99.90;;;;;;4954406;28;20049;-79
2021/10/23 10:15:53;;;;;;;11.40;2.05;;;11.30;99.90;;;;;;4971265;28;20102;-79
2021/10/23 10:18:25;;;;;;;18.85;2.05;;;11.40;99.90;;;;;;4952813;28;20054;-80
2021/10/23 10:20:54;;;;;;;11.85;2.00;;;11.40;99.90;;;;;;4954112;28;20042;-79
2021/10/23 10:23:39;;;;;;;14.98;1.90;;;11.60;99.90;;;;;;4959490;28;20050;-79
2021/10/23 10:26:36;;;;;;;15.87;2.73;;;11.60;99.90;;;;;;4973686;28;20055;-80
2021/10/23 10:29:26;;;;;;;11.23;1.80;;;11.70;99.90;;;;;;4961702;28;20038;-79
2021/10/23 10:32:09;;;;;;;10.20;1.80;;;11.80;99.90;;;;;;4987171;28;20059;-79
2021/10/23 10:34:46;;;;;;;8.95;2.10;;;11.90;99.90;;;;;;4958260;28;20062;-79
2021/10/23 10:37:43;;;;;;;10.35;1.83;;;12.10;99.90;;;;;;4949810;28;20397;-79
2021/10/23 10:42:54;;;;;;;8.65;1.77;;;12.20;99.90;;;;;;4953099;28;20082;-81
2021/10/23 10:45:30;;;;;;;9.32;1.88;;;12.10;99.90;;;;;;4951290;28;20046;-80
2021/10/23 10:48:10;;;;;;;12.05;2.00;;;12.20;99.90;;;;;;4955032;28;20340;-79
2021/10/23 10:50:42;;;;;;;7.50;1.90;;;12.20;99.90;;;;;;4939528;28;20061;-78
2021/10/23 10:53:20;;;;;;;12.18;2.05;;;12.20;99.90;;;;;;4955141;28;20047;-80
2021/10/23 10:55:48;;;;;;;10.05;1.70;;;12.20;99.90;;;;;;4955898;28;20071;-78
2021/10/23 10:58:16;;;;;;;12.70;1.67;;;12.30;99.90;;;;;;4955830;28;20477;-79
2021/10/23 11:00:45;;;;;;;9.88;2.03;;;12.30;99.90;;;;;;4956032;28;20042;-79
2021/10/23 11:03:40;;;;;;;15.68;1.60;;;12.40;99.90;;;;;;4970653;28;20043;-79
2021/10/23 11:06:28;;;;;;;10.07;1.75;;;12.40;99.90;;;;;;4955332;28;20054;-80
2021/10/23 11:09:12;;;;;;;8.80;1.85;;;12.60;99.90;;;;;;4953030;28;20125;-81
2021/10/23 11:11:44;;;;;;;8.90;1.77;;;12.60;99.90;;;;;;4954510;28;20417;-79
2021/10/23 11:14:36;;;;;;;11.98;1.65;;;12.60;99.90;;;;;;4955439;28;20070;-77
2021/10/23 11:17:03;;;;;;;8.10;1.27;;;12.90;99.90;;;;;;4901140;29;20054;-79
2021/10/23 11:19:31;;;;;;;10.52;1.80;;;12.70;99.90;;;;;;4916633;29;20067;-78
2021/10/23 11:22:15;;;;;;;8.93;1.92;;;12.80;99.90;;;;;;4914807;29;20493;-79
2021/10/23 11:24:45;;;;;;;12.35;2.03;;;12.80;99.90;;;;;;4916040;29;20439;-79
2021/10/23 11:27:30;;;;;;;7.82;1.90;;;12.90;99.90;;;;;;4917011;28;20515;-77
2021/10/23 11:30:17;;;;;;;8.07;1.70;;;13.00;99.90;;;;;;4916399;29;20151;-78
2021/10/23 11:32:56;;;;;;;8.13;1.52;;;12.80;99.90;;;;;;4916458;29;20433;-78
2021/10/23 11:35:51;;;;;;;9.27;1.70;;;12.70;99.90;;;;;;4915644;29;20190;-78
2021/10/23 11:38:26;;;;;;;14.05;2.00;;;12.70;99.90;;;;;;4916039;29;20127;-79
2021/10/23 11:41:01;;;;;;;13.68;2.35;;;12.70;99.90;;;;;;4928215;29;20043;-78
2021/10/23 11:43:28;;;;;;;11.57;2.40;;;12.60;99.90;;;;;;4930895;29;20055;-77
2021/10/23 11:45:54;;;;;;;12.90;2.30;;;12.70;99.90;;;;;;4922683;29;20848;-76
2021/10/23 11:48:20;;;;;;;8.15;1.95;;;12.70;99.90;;;;;;4917887;29;20138;-78
2021/10/23 11:50:50;;;;;;;10.70;1.85;;;12.70;99.90;;;;;;4925022;29;20134;-76
2021/10/23 11:53:29;;;;;;;8.15;2.00;;;12.80;99.90;;;;;;4905957;28;20062;-76
2021/10/23 11:55:55;;;;;;;11.70;1.80;;;12.80;99.90;;;;;;4970355;28;20401;-77
2021/10/23 11:58:31;;;;;;;9.93;1.95;;;12.70;99.90;;;;;;4953887;28;20141;-76
2021/10/23 12:01:08;;;;;;;8.00;2.08;;;12.80;99.90;;;;;;4969108;28;20051;-77
2021/10/23 12:03:44;;;;;;;10.35;2.00;;;12.90;99.90;;;;;;4952553;28;20153;-79
2021/10/23 12:06:20;;;;;;;13.75;1.90;;;12.90;99.90;;;;;;4950588;28;20086;-79
2021/10/23 12:08:47;;;;;;;7.15;1.48;;;13.00;99.90;;;;;;4952915;28;20379;-79
2021/10/23 12:11:24;;;;;;;12.75;2.25;;;13.00;99.90;;;;;;4971449;28;20051;-79
2021/10/23 12:14:06;;;;;;;14.13;2.00;;;13.00;99.90;;;;;;4956488;28;20405;-78
2021/10/23 12:16:47;;;;;;;8.63;1.85;;;12.90;99.90;;;;;;4955776;28;20055;-79
2021/10/23 12:19:31;;;;;;;11.50;2.05;;;12.90;99.90;;;;;;4974009;28;20466;-78
2021/10/23 12:22:14;;;;;;;11.95;2.15;;;12.70;99.90;;;;;;4954498;28;20410;-79
2021/10/23 12:24:41;;;;;;;7.85;1.60;;;12.70;99.90;;;;;;4952347;28;20447;-79
2021/10/23 12:27:27;;;;;;;12.30;2.05;;;12.70;99.90;;;;;;4954265;28;20059;-79
2021/10/23 12:29:55;;;;;;;11.38;1.88;;;12.70;99.90;;;;;;4954402;28;20174;-79
2021/10/23 12:32:26;;;;;;;9.20;1.80;;;12.80;99.90;;;;;;4954365;28;20062;-79
2021/10/23 12:34:53;;;;;;;9.82;1.70;;;12.70;99.90;;;;;;4983505;28;20065;-79
2021/10/23 12:37:27;;;;;;;14.23;2.10;;;12.70;99.90;;;;;;4968073;28;20043;-80
2021/10/23 12:40:05;;;;;;;;;;;12.70;99.90;;;;;;4953860;28;20058;-81
2021/10/23 12:42:37;;;;;;;12.35;2.30;;;12.80;99.90;;;;;;4971174;28;19964;-79
2021/10/23 12:45:05;;;;;;;14.35;1.90;;;12.80;99.90;;;;;;4974159;28;20398;-78
2021/10/23 12:47:31;;;;;;;9.50;2.22;;;12.70;99.90;;;;;;4969915;28;20042;-78
2021/10/23 12:49:57;;;;;;;10.07;1.85;;;12.70;99.90;;;;;;4952420;28;20054;-78
2021/10/23 12:52:23;;;;;;;8.80;1.70;;;12.60;99.90;;;;;;4950885;28;20058;-78
2021/10/23 12:54:49;;;;;;;9.60;1.67;;;12.60;99.90;;;;;;4939292;28;20491;-78
2021/10/23 12:57:14;;;;;;;10.48;2.00;;;12.60;99.90;;;;;;4954509;28;20141;-79
2021/10/23 12:59:40;;;;;;;10.63;1.90;;;12.50;99.90;;;;;;4936692;28;20386;-79